Last 30 Days

Alpine-Scott Top 8120'

Daily Data | America/Los_Angeles
as of 2/18/20 8:05 AM PST
Date Daily Max Temp (°F) Max Temp Time Daily Min Temp (°F) Min Temp Time Wind Spd (mph) Wind Gust (mph) Wind Gst Dir (°) Wind Gst Time Wet Bulb (°F) WetB Hrs <28F (hrs) Max RH (%) Min RH (%) Bat Volt Min Day (V)
2/17/20 39.9 1606 23.9 0432 5.5 19.3 NE | 40 1040 23.5 24.0 95 13 11.3
2/16/20 39.6 1339 28.4 2307 13.8 43.2 S | 174 0622 29.3 8.1 93 49 11.3
2/15/20 38.5 1405 29.3 0556 12.9 35.6 SSW | 193 2339 27.6 14.9 86 17 11.3
2/14/20 40.5 1537 28.3 0630 6.8 27.8 SSW | 205 0333 27.5 12.3 72 33 11.3
2/13/20 40.9 1324 30.2 0011 8.6 27.4 S | 188 2033 27.8 12.3 82 15 11.3
2/12/20 42.3 1412 29.1 2255 5.8 16.3 ENE | 70 1959 27.0 16.6 67 33 11.3
2/11/20 42.0 1329 22.8 0619 7.4 26.7 E | 93 0535 25.0 18.9 75 31 11.3
2/10/20 34.9 1422 19.3 0303 10.4 27.2 ESE | 105 0158 21.5 24.0 73 37 11.3
2/9/20 27.5 1447 14.5 0525 10.1 45.0 E | 98 0758 16.7 24.0 92 45 11.3
2/8/20 37.6 1201 16.3 2322 17.9 40.7 S | 186 1525 26.0 14.4 85 34 11.3
2/7/20 51.5 1340 35.3 2340 7.2 26.2 WSW | 238 2246 29.3 9.7 60 15 11.3
2/6/20 36.6 2344 35.1 2144 7.9 14.7 NE | 39 2226 27.9 1.6 52 31 11.4
2/5/20 39.0 1347 23.8 0442 9.1 25.9 NE | 36 1921 28.1 9.6 98 42 11.3
2/4/20 27.6 2345 8.3 0441 8.5 29.5 E | 87 0117 12.2 24.0 71 29 11.3
2/3/20 17.6 1524 4.9 0746 9.1 32.9 E | 91 2357 7.8 24.0 92 30 11.3
2/2/20 39.0 0024 9.3 2358 16.8 45.8 SSW | 210 0751 21.1 16.0 98 34 11.3
2/1/20 51.6 1115 38.1 2341 10.7 31.5 SW | 216 2305 31.2 0.0 43 2 11.4
1/31/20 57.2 1241 36.6 0013 3.5 14.5 SSW | 210 1400 35.3 0.0 61 5 11.4
1/30/20 43.3 1417 32.2 2104 3.8 20.1 W | 266 0219 34.3 0.0 99 47 11.4
1/29/20 38.4 2046 20.9 0415 4.4 17.9 NNE | 31 0001 26.2 15.4 97 37 11.3
1/28/20 29.9 0140 22.5 2317 18.6 49.9 SSW | 207 1406 24.3 22.9 98 33 11.3
1/27/20 30.1 1248 24.8 0001 13.7 32.5 SW | 220 1836 26.3 15.8 99 37 11.3
1/26/20 34.2 0201 24.2 2243 13.9 43.0 SSW | 201 0125 28.7 8.7 100 98 11.3
1/25/20 44.7 1144 29.5 0355 7.6 31.9 SSW | 207 2359 33.7 2.8 99 42 11.3
1/24/20 33.9 0028 28.4 1019 12.1 38.8 SSW | 205 0038 29.8 2.7 100 41 11.3
1/23/20 39.8 1102 32.4 0120 7.4 34.5 SSW | 207 2314 34.1 0.0 99 75 11.3
1/22/20 35.4 1541 27.4 0533 6.4 29.0 S | 182 0054 30.9 2.3 100 89 11.3
1/21/20 29.4 2356 24.7 0723 18.6 44.4 SSW | 207 0948 26.1 22.7 99 93 11.3
1/20/20 38.0 1214 25.8 2359 12.8 31.5 SW | 223 1849 27.3 14.8 93 33 11.3
1/19/20 47.1 1348 33.0 0454 4.8 32.7 SSW | 206 2257 28.8 9.5 52 23 11.3
Max 57.2 - 38.1 - 18.6 49.9 - - 35.3 24.0 100 98 11.4
Avg - - - - 9.9 31.2 - - 26.5 - - - -
Min 17.6 - 4.9 - 3.5 14.5 - - 7.8 0.0 43 2 11.3